Time;durP1;ratioP1;P1;durP2;ratioP2;P2;SDS_P1;SDS_P2;PMS_P1;PMS_P2;Temp;Humidity;BMP_temperature;BMP_pressure;BME280_temperature;BME280_humidity;BME280_pressure;Samples;Min_cycle;Max_cycle;Signal;HPM_P1;HPM_P2
2022/10/07 00:02:13;;;;;;;;;;;20.40;49.00;;;;;;8363825;28;19955;-44
2022/10/07 00:06:16;;;;;;;;;;;20.30;48.90;;;;;;8362721;28;19971;-45
2022/10/07 00:10:16;;;;;;;;;;;20.30;48.90;;;;;;8365168;28;20293;-45
2022/10/07 00:14:16;;;;;;;;;;;20.40;49.00;;;;;;8370209;28;19920;-47
2022/10/07 00:18:17;;;;;;;;;;;20.30;48.90;;;;;;8369462;28;19959;-43
2022/10/07 00:22:17;;;;;;;;;;;20.30;48.90;;;;;;8370195;28;20040;-45
2022/10/07 00:26:19;;;;;;;;;;;20.30;48.90;;;;;;8369744;28;19917;-44
2022/10/07 00:30:19;;;;;;;;;;;20.30;48.90;;;;;;8369061;28;20350;-45
2022/10/07 00:34:20;;;;;;;;;;;20.30;48.90;;;;;;8369644;28;19924;-43
2022/10/07 00:38:20;;;;;;;;;;;20.30;48.90;;;;;;8369216;28;19912;-44
2022/10/07 00:42:21;;;;;;;;;;;20.30;49.50;;;;;;8368790;28;19924;-44
2022/10/07 00:46:24;;;;;;;;;;;20.30;49.00;;;;;;8369338;28;19944;-46
2022/10/07 00:50:26;;;;;;;;;;;20.30;49.00;;;;;;8369046;28;20013;-45
2022/10/07 00:54:27;;;;;;;;;;;20.30;49.00;;;;;;8368337;28;19983;-44
2022/10/07 00:58:33;;;;;;;;;;;20.30;49.00;;;;;;8368784;28;19920;-43
2022/10/07 01:02:33;;;;;;;;;;;20.30;49.00;;;;;;8353651;28;19971;-44
2022/10/07 01:06:38;;;;;;;;;;;20.30;49.00;;;;;;8366109;28;19966;-44
2022/10/07 01:10:43;;;;;;;;;;;20.30;49.00;;;;;;8368328;28;19921;-45
2022/10/07 01:14:49;;;;;;;;;;;20.30;49.00;;;;;;8367729;28;19958;-45
2022/10/07 01:18:51;;;;;;;;;;;20.30;49.00;;;;;;8368476;28;20003;-44
2022/10/07 01:23:00;;;;;;;;;;;20.30;49.00;;;;;;8367185;28;19986;-44
2022/10/07 01:27:04;;;;;;;;;;;20.30;49.10;;;;;;8367808;28;20003;-44
2022/10/07 01:31:06;;;;;;;;;;;20.30;49.00;;;;;;8367634;28;19920;-44
2022/10/07 01:35:14;;;;;;;;;;;20.20;49.00;;;;;;8367671;28;19917;-44
2022/10/07 01:39:16;;;;;;;;;;;20.30;49.10;;;;;;8367058;28;19921;-43
2022/10/07 01:43:17;;;;;;;;;;;20.20;49.00;;;;;;8367109;28;19929;-44
2022/10/07 01:47:18;;;;;;;;;;;20.20;49.00;;;;;;8367644;28;20309;-46
2022/10/07 01:51:21;;;;;;;;;;;20.20;49.00;;;;;;8367106;28;20004;-44
2022/10/07 01:55:40;;;;;;;;;;;20.20;49.00;;;;;;8366986;28;19932;-44
2022/10/07 01:59:54;;;;;;;;;;;20.20;49.00;;;;;;8366395;28;19917;-48
2022/10/07 02:04:03;;;;;;;;;;;20.20;49.00;;;;;;8366933;28;19929;-44
2022/10/07 02:08:10;;;;;;;;;;;20.20;49.10;;;;;;8366892;28;20388;-44
2022/10/07 02:12:29;;;;;;;;;;;20.20;49.10;;;;;;8366013;28;19924;-45
2022/10/07 02:16:34;;;;;;;;;;;20.20;49.10;;;;;;8366425;28;19921;-43
2022/10/07 02:20:36;;;;;;;;;;;20.20;49.10;;;;;;8366130;28;20298;-44
2022/10/07 02:24:37;;;;;;;;;;;20.20;49.10;;;;;;8365642;28;19953;-43
2022/10/07 02:28:40;;;;;;;;;;;20.20;49.10;;;;;;8365829;28;19913;-44
2022/10/07 02:32:43;;;;;;;;;;;20.20;49.10;;;;;;8365389;28;20274;-45
2022/10/07 02:36:46;;;;;;;;;;;20.20;49.10;;;;;;8366032;28;20568;-43
2022/10/07 02:41:00;;;;;;;;;;;20.20;49.10;;;;;;8365328;28;19921;-43
2022/10/07 02:45:25;;;;;;;;;;;20.20;49.10;;;;;;8364948;28;19940;-45
2022/10/07 02:49:27;;;;;;;;;;;20.20;49.10;;;;;;8328391;28;19923;-43
2022/10/07 02:53:28;;;;;;;;;;;20.20;49.20;;;;;;8365330;28;20282;-44
2022/10/07 02:57:30;;;;;;;;;;;20.20;49.20;;;;;;8364495;28;19960;-45
2022/10/07 03:01:33;;;;;;;;;;;20.20;49.10;;;;;;8364730;28;19945;-44
2022/10/07 03:05:34;;;;;;;;;;;20.10;49.20;;;;;;8364787;28;19964;-44
2022/10/07 03:09:35;;;;;;;;;;;20.10;49.10;;;;;;8364129;28;19996;-43
2022/10/07 03:13:35;;;;;;;;;;;20.10;49.20;;;;;;8364149;28;19916;-43
2022/10/07 03:17:36;;;;;;;;;;;20.10;49.20;;;;;;8364384;28;19924;-44
2022/10/07 03:21:36;;;;;;;;;;;20.10;49.40;;;;;;8363825;28;19999;-44
2022/10/07 03:25:37;;;;;;;;;;;20.10;49.20;;;;;;8364344;28;20375;-44
2022/10/07 03:29:37;;;;;;;;;;;20.10;49.20;;;;;;8363589;28;20378;-44
2022/10/07 03:33:38;;;;;;;;;;;20.10;49.20;;;;;;8364043;28;19920;-43
2022/10/07 03:37:38;;;;;;;;;;;20.10;49.20;;;;;;8363685;28;20013;-44
2022/10/07 03:41:40;;;;;;;;;;;20.10;49.30;;;;;;8363198;28;20328;-45
2022/10/07 03:45:42;;;;;;;;;;;20.10;49.30;;;;;;8363203;28;19964;-43
2022/10/07 03:49:43;;;;;;;;;;;20.10;49.30;;;;;;8363689;28;19923;-43
2022/10/07 03:53:43;;;;;;;;;;;20.10;49.30;;;;;;8361863;28;20297;-43
2022/10/07 03:57:51;;;;;;;;;;;20.10;49.30;;;;;;8363379;28;19928;-43
2022/10/07 04:01:51;;;;;;;;;;;20.10;49.30;;;;;;8363561;28;20015;-43
2022/10/07 04:05:58;;;;;;;;;;;20.10;49.30;;;;;;8362848;28;20435;-44
2022/10/07 04:09:58;;;;;;;;;;;20.10;49.30;;;;;;8344074;28;20039;-45
2022/10/07 04:13:59;;;;;;;;;;;20.10;49.30;;;;;;8363344;28;20394;-44
2022/10/07 04:18:00;;;;;;;;;;;20.10;49.30;;;;;;8362719;28;20020;-43
2022/10/07 04:22:00;;;;;;;;;;;20.10;49.30;;;;;;8362982;28;19920;-44
2022/10/07 04:26:05;;;;;;;;;;;20.10;49.80;;;;;;8363089;28;19916;-43
2022/10/07 04:30:05;;;;;;;;;;;20.10;49.30;;;;;;8362875;28;20423;-44
2022/10/07 04:34:07;;;;;;;;;;;20.10;49.30;;;;;;8363078;28;19913;-43
2022/10/07 04:38:08;;;;;;;;;;;20.10;49.30;;;;;;8362761;28;19917;-43
2022/10/07 04:43:17;;;;;;;;;;;20.10;49.30;;;;;;8362121;28;19925;-43
2022/10/07 04:46:29;;;;;;;;;;;20.10;49.30;;;;;;8362566;28;20344;-44
2022/10/07 04:50:31;;;;;;;;;;;20.10;49.30;;;;;;8362607;28;19920;-45
2022/10/07 04:54:32;;;;;;;;;;;20.10;49.30;;;;;;8362050;28;19917;-46
2022/10/07 04:58:33;;;;;;;;;;;20.10;49.80;;;;;;8367909;28;19956;-43
2022/10/07 05:02:34;;;;;;;;;;;20.10;49.30;;;;;;8368517;28;19929;-43
2022/10/07 05:06:34;;;;;;;;;;;20.10;49.30;;;;;;8368029;28;20275;-44
2022/10/07 05:10:36;;;;;;;;;;;20.10;49.30;;;;;;8368649;28;19987;-43
2022/10/07 05:14:36;;;;;;;;;;;20.10;49.30;;;;;;8368351;28;19916;-44
2022/10/07 05:18:38;;;;;;;;;;;20.10;49.30;;;;;;8368017;28;20377;-43
2022/10/07 05:22:38;;;;;;;;;;;20.10;49.30;;;;;;8367827;28;19925;-43
2022/10/07 05:26:39;;;;;;;;;;;20.10;49.30;;;;;;8367583;28;19913;-44
2022/10/07 05:30:39;;;;;;;;;;;20.10;49.30;;;;;;8368014;28;19965;-44
2022/10/07 05:34:40;;;;;;;;;;;20.10;49.30;;;;;;8367528;28;19920;-43
2022/10/07 05:38:41;;;;;;;;;;;20.10;49.40;;;;;;8367379;28;19996;-45
2022/10/07 05:42:41;;;;;;;;;;;20.10;49.30;;;;;;8367687;28;19924;-43
2022/10/07 05:46:42;;;;;;;;;;;20.10;49.40;;;;;;8367704;28;19913;-44
2022/10/07 05:50:45;;;;;;;;;;;20.10;49.30;;;;;;8366964;28;20407;-43
2022/10/07 05:54:46;;;;;;;;;;;20.10;49.40;;;;;;8367275;28;19916;-43
2022/10/07 05:58:47;;;;;;;;;;;20.10;49.40;;;;;;8367327;28;19917;-43
2022/10/07 06:02:50;;;;;;;;;;;20.10;49.40;;;;;;8366330;28;20008;-43
2022/10/07 06:06:50;;;;;;;;;;;20.10;49.40;;;;;;8366641;28;19991;-44
2022/10/07 06:15:10;;;;;;;;;;;20.10;49.40;;;;;;8365993;28;19923;-44
2022/10/07 06:19:21;;;;;;;;;;;20.10;49.40;;;;;;8366194;28;20095;-43
2022/10/07 06:23:21;;;;;;;;;;;20.10;49.40;;;;;;8369356;28;19925;-44
2022/10/07 06:27:23;;;;;;;;;;;20.10;49.40;;;;;;8365571;28;20015;-45
2022/10/07 06:31:24;;;;;;;;;;;20.10;49.40;;;;;;8365786;28;19919;-45
2022/10/07 06:35:25;;;;;;;;;;;20.10;49.50;;;;;;8365571;28;19927;-45
2022/10/07 06:39:25;;;;;;;;;;;20.10;49.40;;;;;;8365244;28;19913;-43
2022/10/07 06:43:26;;;;;;;;;;;20.10;49.40;;;;;;8365218;28;19925;-44
2022/10/07 06:47:26;;;;;;;;;;;20.10;49.40;;;;;;8365318;28;19921;-43
2022/10/07 06:51:27;;;;;;;;;;;20.10;49.40;;;;;;8364565;28;19962;-43
2022/10/07 06:55:28;;;;;;;;;;;20.10;49.40;;;;;;8364821;28;19960;-44
2022/10/07 06:59:28;;;;;;;;;;;20.10;49.40;;;;;;8365003;28;19936;-43
2022/10/07 07:03:29;;;;;;;;;;;20.10;49.40;;;;;;8364293;28;20362;-43
2022/10/07 07:07:29;;;;;;;;;;;20.10;49.40;;;;;;8363439;28;19917;-43
2022/10/07 07:11:37;;;;;;;;;;;20.10;49.40;;;;;;8364581;28;19970;-44
2022/10/07 07:15:38;;;;;;;;;;;20.10;49.40;;;;;;8364230;28;19931;-45
2022/10/07 07:19:38;;;;;;;;;;;20.10;49.30;;;;;;8363655;28;19939;-44
2022/10/07 07:23:39;;;;;;;;;;;20.10;49.30;;;;;;8362310;28;20471;-44
2022/10/07 07:27:40;;;;;;;;;;;20.10;49.30;;;;;;8363987;28;19924;-44
2022/10/07 07:31:40;;;;;;;;;;;20.20;49.30;;;;;;8363941;28;19917;-43
2022/10/07 07:35:42;;;;;;;;;;;20.10;49.30;;;;;;8363424;28;20313;-45
2022/10/07 07:39:43;;;;;;;;;;;20.20;49.30;;;;;;8364085;28;19995;-44
2022/10/07 07:43:46;;;;;;;;;;;20.20;49.30;;;;;;8363700;28;19951;-44
2022/10/07 07:47:48;;;;;;;;;;;20.20;49.30;;;;;;8363426;28;19921;-44
2022/10/07 07:51:49;;;;;;;;;;;20.20;49.30;;;;;;8363886;28;20012;-46
2022/10/07 07:55:53;;;;;;;;;;;20.20;49.30;;;;;;8363788;28;19913;-45
2022/10/07 07:59:54;;;;;;;;;;;20.20;49.30;;;;;;8363173;28;20012;-44
2022/10/07 08:03:55;;;;;;;;;;;20.20;49.20;;;;;;8363148;28;19929;-44
2022/10/07 08:07:55;;;;;;;;;;;20.20;49.20;;;;;;8363337;28;19917;-43
2022/10/07 08:11:56;;;;;;;;;;;20.20;49.30;;;;;;8362705;28;19928;-44
2022/10/07 08:15:56;;;;;;;;;;;20.20;49.30;;;;;;8363324;28;19936;-46
2022/10/07 08:19:57;;;;;;;;;;;20.20;49.30;;;;;;8363148;28;19919;-43
2022/10/07 08:23:58;;;;;;;;;;;20.20;49.20;;;;;;8362334;28;19932;-45
2022/10/07 08:27:58;;;;;;;;;;;20.30;49.30;;;;;;8362949;28;19974;-46
2022/10/07 08:31:59;;;;;;;;;;;20.20;49.20;;;;;;8365723;28;20393;-45
2022/10/07 08:36:00;;;;;;;;;;;20.30;49.20;;;;;;8369228;28;20427;-46
2022/10/07 08:40:01;;;;;;;;;;;20.30;49.20;;;;;;8369354;28;20358;-45
2022/10/07 08:44:11;;;;;;;;;;;20.30;49.20;;;;;;8368961;28;19925;-45
2022/10/07 08:48:13;;;;;;;;;;;20.30;49.20;;;;;;8368672;28;19923;-43
2022/10/07 08:52:20;;;;;;;;;;;20.30;49.20;;;;;;8368873;28;19958;-43
2022/10/07 08:56:23;;;;;;;;;;;20.30;49.20;;;;;;8368846;28;20377;-45
2022/10/07 09:00:24;;;;;;;;;;;20.30;49.20;;;;;;8368351;28;19913;-45
2022/10/07 09:04:43;;;;;;;;;;;20.30;49.20;;;;;;8368482;28;19943;-45
2022/10/07 09:08:46;;;;;;;;;;;20.30;49.20;;;;;;8367711;28;19924;-42
2022/10/07 09:12:53;;;;;;;;;;;20.30;49.20;;;;;;8368189;28;19917;-45
2022/10/07 09:17:00;;;;;;;;;;;20.30;49.20;;;;;;8368178;28;19959;-45
2022/10/07 09:21:02;;;;;;;;;;;20.30;49.10;;;;;;8367739;28;19913;-46
2022/10/07 09:25:17;;;;;;;;;;;20.30;49.10;;;;;;8367737;28;20424;-45
2022/10/07 09:29:19;;;;;;;;;;;20.30;49.10;;;;;;8367670;28;19920;-45
2022/10/07 09:33:21;;;;;;;;;;;20.30;49.10;;;;;;8367194;28;19928;-45
2022/10/07 09:37:23;;;;;;;;;;;20.30;49.10;;;;;;8367672;28;20258;-45
2022/10/07 09:41:23;;;;;;;;;;;20.40;49.10;;;;;;8367440;28;19920;-45
2022/10/07 09:45:25;;;;;;;;;;;20.40;49.20;;;;;;8365830;28;19928;-45
2022/10/07 09:49:26;;;;;;;;;;;20.40;49.10;;;;;;8366968;28;19917;-47
2022/10/07 09:53:31;;;;;;;;;;;20.40;49.20;;;;;;8367005;28;19913;-47
2022/10/07 09:57:33;;;;;;;;;;;20.40;49.10;;;;;;8366569;28;19917;-46
2022/10/07 10:01:33;;;;;;;;;;;20.40;49.10;;;;;;8366895;28;19913;-45
2022/10/07 10:05:36;;;;;;;;;;;20.40;49.10;;;;;;8365596;28;20396;-45
2022/10/07 10:09:36;;;;;;;;;;;20.50;49.10;;;;;;8366494;28;19947;-47
2022/10/07 10:13:38;;;;;;;;;;;20.40;49.10;;;;;;8366462;28;19917;-46
2022/10/07 10:17:39;;;;;;;;;;;20.50;49.10;;;;;;8365845;28;19917;-45
2022/10/07 10:21:40;;;;;;;;;;;20.50;49.10;;;;;;8366538;28;19917;-45
2022/10/07 10:30:10;;;;;;;;;;;20.50;49.00;;;;;;8366864;28;20346;-46
2022/10/07 10:34:28;;;;;;;;;;;20.50;49.00;;;;;;8365679;28;20007;-45
2022/10/07 10:38:47;;;;;;;;;;;20.50;49.00;;;;;;8365682;28;19935;-46
2022/10/07 10:43:06;;;;;;;;;;;20.50;49.00;;;;;;8365077;28;19978;-45
2022/10/07 10:47:11;;;;;;;;;;;20.60;49.00;;;;;;8365416;28;20408;-46
2022/10/07 10:51:33;;;;;;;;;;;20.60;49.00;;;;;;8364809;28;19917;-45
2022/10/07 10:55:57;;;;;;;;;;;20.60;48.90;;;;;;8365121;28;20374;-46
2022/10/07 11:00:07;;;;;;;;;;;20.60;48.90;;;;;;8364556;28;19959;-46
2022/10/07 11:04:13;;;;;;;;;;;20.60;48.90;;;;;;8364531;28;20048;-45
2022/10/07 11:08:20;;;;;;;;;;;20.60;48.90;;;;;;8364590;28;19963;-45
2022/10/07 11:12:29;;;;;;;;;;;20.60;48.90;;;;;;8364177;28;20343;-45
2022/10/07 11:16:35;;;;;;;;;;;20.60;48.90;;;;;;8364792;28;20389;-45
2022/10/07 11:20:37;;;;;;;;;;;20.70;48.90;;;;;;8364327;28;19920;-44
2022/10/07 11:24:39;;;;;;;;;;;20.70;48.90;;;;;;8364163;28;19925;-45
2022/10/07 11:28:42;;;;;;;;;;;20.70;48.90;;;;;;8364230;28;19920;-44
2022/10/07 11:32:45;;;;;;;;;;;20.70;48.90;;;;;;8363638;28;20301;-44
2022/10/07 11:36:50;;;;;;;;;;;20.70;48.80;;;;;;8364003;28;19950;-43
2022/10/07 11:40:50;;;;;;;;;;;20.70;48.90;;;;;;8363953;28;20301;-44
2022/10/07 11:44:54;;;;;;;;;;;20.70;48.90;;;;;;8363140;28;19960;-44
2022/10/07 11:49:05;;;;;;;;;;;20.70;48.80;;;;;;8363825;28;19917;-44
2022/10/07 11:53:20;;;;;;;;;;;20.70;48.80;;;;;;8363425;28;19916;-44
2022/10/07 11:57:23;;;;;;;;;;;20.70;48.80;;;;;;8362942;28;19962;-45
2022/10/07 12:01:29;;;;;;;;;;;20.80;48.80;;;;;;8363770;28;19916;-44
2022/10/07 12:05:32;;;;;;;;;;;20.80;48.80;;;;;;8362526;28;19925;-44
2022/10/07 12:09:52;;;;;;;;;;;20.80;48.80;;;;;;8362734;28;19926;-44
2022/10/07 12:13:53;;;;;;;;;;;20.80;48.80;;;;;;8363234;28;19924;-46
2022/10/07 12:17:55;;;;;;;;;;;20.80;48.80;;;;;;8363126;28;20437;-44
2022/10/07 12:22:04;;;;;;;;;;;20.80;48.70;;;;;;8363476;28;20404;-46
2022/10/07 12:26:24;;;;;;;;;;;20.90;48.80;;;;;;8362812;28;19920;-44
2022/10/07 12:30:47;;;;;;;;;;;20.90;49.30;;;;;;8347981;28;20000;-44
2022/10/07 12:34:47;;;;;;;;;;;20.90;48.80;;;;;;8344096;28;19938;-45
2022/10/07 12:38:54;;;;;;;;;;;20.90;48.70;;;;;;8347928;28;19916;-44
2022/10/07 12:43:09;;;;;;;;;;;20.90;48.70;;;;;;8343858;28;19929;-46
2022/10/07 12:47:10;;;;;;;;;;;20.90;48.70;;;;;;8341738;28;19946;-44
2022/10/07 12:51:15;;;;;;;;;;;20.90;48.70;;;;;;8354693;28;19917;-45
2022/10/07 12:55:21;;;;;;;;;;;20.90;48.70;;;;;;8362228;28;20586;-46
2022/10/07 12:59:46;;;;;;;;;;;20.90;48.80;;;;;;8348608;28;19917;-47
2022/10/07 13:03:58;;;;;;;;;;;21.00;48.80;;;;;;8340627;28;20302;-45
2022/10/07 13:08:11;;;;;;;;;;;20.90;48.70;;;;;;8344240;28;20283;-45
2022/10/07 13:12:38;;;;;;;;;;;21.00;48.70;;;;;;8351262;28;20000;-46
2022/10/07 13:16:42;;;;;;;;;;;21.00;48.70;;;;;;8340443;28;19917;-45
2022/10/07 13:20:58;;;;;;;;;;;21.00;48.80;;;;;;8346305;28;19917;-46
2022/10/07 13:25:00;;;;;;;;;;;21.00;48.70;;;;;;8346595;28;19932;-45
2022/10/07 13:29:00;;;;;;;;;;;21.00;48.70;;;;;;8360131;28;19928;-46
2022/10/07 13:33:16;;;;;;;;;;;21.00;48.70;;;;;;8364837;28;20385;-43
2022/10/07 13:37:36;;;;;;;;;;;21.00;48.60;;;;;;8350280;28;19921;-44
2022/10/07 13:41:38;;;;;;;;;;;21.00;48.60;;;;;;8353626;28;19975;-45
2022/10/07 13:45:39;;;;;;;;;;;21.00;48.70;;;;;;8349633;28;19972;-45
2022/10/07 13:49:45;;;;;;;;;;;21.10;48.70;;;;;;8355036;28;20270;-45
2022/10/07 13:53:50;;;;;;;;;;;21.10;48.80;;;;;;8347846;28;19960;-45
2022/10/07 13:57:56;;;;;;;;;;;21.10;48.70;;;;;;8347277;28;19921;-44
2022/10/07 14:01:57;;;;;;;;;;;21.10;48.60;;;;;;8354995;28;19917;-44
2022/10/07 14:05:57;;;;;;;;;;;21.10;48.60;;;;;;8352119;28;20397;-45
2022/10/07 14:09:57;;;;;;;;;;;21.10;48.60;;;;;;8347187;28;19917;-47
2022/10/07 14:13:58;;;;;;;;;;;21.10;49.20;;;;;;8349035;28;19917;-45
2022/10/07 14:18:06;;;;;;;;;;;21.10;48.60;;;;;;8354846;28;20018;-45
2022/10/07 14:22:15;;;;;;;;;;;21.10;48.60;;;;;;8348218;28;19960;-44
2022/10/07 14:26:17;;;;;;;;;;;21.10;48.60;;;;;;8338858;28;20397;-45
2022/10/07 14:30:24;;;;;;;;;;;21.10;48.50;;;;;;8350049;28;20321;-43
2022/10/07 14:38:45;;;;;;;;;;;21.10;48.60;;;;;;8353226;28;19983;-45
2022/10/07 14:42:46;;;;;;;;;;;21.10;48.60;;;;;;8358888;28;19971;-44
2022/10/07 14:46:46;;;;;;;;;;;21.10;48.60;;;;;;8354896;28;19921;-46
2022/10/07 14:50:47;;;;;;;;;;;21.10;48.60;;;;;;8358558;28;19925;-44
2022/10/07 14:54:49;;;;;;;;;;;21.10;48.60;;;;;;8349356;28;19940;-44
2022/10/07 14:58:49;;;;;;;;;;;21.10;48.60;;;;;;8350958;28;19935;-45
2022/10/07 15:02:51;;;;;;;;;;;21.10;48.60;;;;;;8358761;28;19928;-44
2022/10/07 15:06:52;;;;;;;;;;;21.10;48.60;;;;;;8363720;28;19928;-45
2022/10/07 15:10:53;;;;;;;;;;;21.10;48.60;;;;;;8357312;28;19963;-44
2022/10/07 15:14:54;;;;;;;;;;;21.10;48.70;;;;;;8345413;28;20324;-46
2022/10/07 15:18:54;;;;;;;;;;;21.10;48.60;;;;;;8344961;28;20294;-44
2022/10/07 15:22:55;;;;;;;;;;;21.10;48.70;;;;;;8351154;28;19935;-47
2022/10/07 15:26:56;;;;;;;;;;;21.10;48.60;;;;;;8361949;28;20027;-45
2022/10/07 15:31:08;;;;;;;;;;;21.10;48.60;;;;;;8363929;28;19916;-45
2022/10/07 15:35:08;;;;;;;;;;;21.10;48.60;;;;;;8363969;28;19916;-45
2022/10/07 15:39:09;;;;;;;;;;;21.10;48.70;;;;;;8363405;28;19931;-47
2022/10/07 15:43:09;;;;;;;;;;;21.20;48.70;;;;;;8363616;28;19925;-45
2022/10/07 15:47:13;;;;;;;;;;;21.20;48.70;;;;;;8363581;28;19921;-46
2022/10/07 15:51:14;;;;;;;;;;;21.10;48.70;;;;;;8363191;28;19920;-46
2022/10/07 15:55:15;;;;;;;;;;;21.10;48.70;;;;;;8363458;28;19919;-46
2022/10/07 15:59:15;;;;;;;;;;;21.10;48.70;;;;;;8363468;28;20015;-46
2022/10/07 16:03:16;;;;;;;;;;;21.10;48.70;;;;;;8363040;28;19932;-45
2022/10/07 16:07:16;;;;;;;;;;;21.10;48.70;;;;;;8362204;28;19917;-46
2022/10/07 16:11:17;;;;;;;;;;;21.20;48.70;;;;;;8362958;28;19919;-46
2022/10/07 16:15:17;;;;;;;;;;;21.20;48.70;;;;;;8362486;28;19917;-44
2022/10/07 16:19:18;;;;;;;;;;;21.20;48.70;;;;;;8362971;28;19992;-44
2022/10/07 16:23:18;;;;;;;;;;;21.20;48.70;;;;;;8363016;28;20361;-45
2022/10/07 16:27:19;;;;;;;;;;;21.20;48.80;;;;;;8362383;28;19924;-44
2022/10/07 16:31:19;;;;;;;;;;;21.10;48.80;;;;;;8362616;28;19920;-45
2022/10/07 16:35:19;;;;;;;;;;;21.20;48.80;;;;;;8362644;28;20007;-45
2022/10/07 16:39:20;;;;;;;;;;;21.20;48.90;;;;;;8362283;28;19916;-45
2022/10/07 16:43:21;;;;;;;;;;;21.10;48.90;;;;;;8362585;28;19925;-44
2022/10/07 16:47:21;;;;;;;;;;;21.10;48.90;;;;;;8362623;28;19917;-44
2022/10/07 16:51:23;;;;;;;;;;;21.10;48.90;;;;;;8349930;28;19925;-44
2022/10/07 16:55:23;;;;;;;;;;;21.10;48.90;;;;;;8356531;28;19917;-44
2022/10/07 16:59:24;;;;;;;;;;;21.10;49.00;;;;;;8365480;28;19917;-44
2022/10/07 17:03:25;;;;;;;;;;;21.10;49.00;;;;;;8366868;28;19924;-44
2022/10/07 17:07:25;;;;;;;;;;;21.10;49.00;;;;;;8354317;28;20007;-46
2022/10/07 17:11:28;;;;;;;;;;;21.10;49.00;;;;;;8363672;28;19921;-44
2022/10/07 17:15:29;;;;;;;;;;;21.10;49.00;;;;;;8363204;28;20336;-44
2022/10/07 17:19:29;;;;;;;;;;;21.10;49.00;;;;;;8362819;28;19917;-45
2022/10/07 17:23:31;;;;;;;;;;;21.10;49.00;;;;;;8365326;28;19926;-44
2022/10/07 17:27:32;;;;;;;;;;;21.10;49.00;;;;;;8362243;28;19961;-44
2022/10/07 17:31:33;;;;;;;;;;;21.10;49.00;;;;;;8350518;28;19917;-44
2022/10/07 17:35:34;;;;;;;;;;;21.10;49.00;;;;;;8366412;28;19956;-46
2022/10/07 17:39:34;;;;;;;;;;;21.10;49.10;;;;;;8366922;28;19921;-45
2022/10/07 17:43:35;;;;;;;;;;;21.10;49.10;;;;;;8367536;28;19925;-45
2022/10/07 17:47:35;;;;;;;;;;;21.10;49.10;;;;;;8367196;28;19974;-45
2022/10/07 17:51:36;;;;;;;;;;;21.10;49.10;;;;;;8366642;28;19925;-45
2022/10/07 17:55:36;;;;;;;;;;;21.10;49.10;;;;;;8366742;28;19917;-44
2022/10/07 17:59:37;;;;;;;;;;;21.10;49.10;;;;;;8366524;28;19912;-43
2022/10/07 18:03:39;;;;;;;;;;;21.10;49.10;;;;;;8366163;28;19928;-45
2022/10/07 18:07:41;;;;;;;;;;;21.10;49.10;;;;;;8366656;28;19928;-45
2022/10/07 18:16:00;;;;;;;;;;;21.10;49.10;;;;;;8366734;28;19924;-44
2022/10/07 18:20:05;;;;;;;;;;;21.10;49.10;;;;;;8366425;28;19988;-44
2022/10/07 18:24:06;;;;;;;;;;;21.10;49.10;;;;;;8365859;28;19921;-44
2022/10/07 18:28:06;;;;;;;;;;;21.10;49.10;;;;;;8365953;28;20419;-44
2022/10/07 18:32:07;;;;;;;;;;;21.10;49.20;;;;;;8365869;28;19917;-45
2022/10/07 18:36:09;;;;;;;;;;;21.10;49.10;;;;;;8365270;28;19983;-45
2022/10/07 18:40:09;;;;;;;;;;;21.10;49.10;;;;;;8365591;28;19955;-44
2022/10/07 18:44:10;;;;;;;;;;;21.10;49.10;;;;;;8365518;28;20270;-45
2022/10/07 18:48:10;;;;;;;;;;;21.10;49.00;;;;;;8364910;28;19916;-45
2022/10/07 18:52:11;;;;;;;;;;;21.10;49.10;;;;;;8365635;28;19921;-46
2022/10/07 18:56:21;;;;;;;;;;;21.10;49.60;;;;;;8365270;28;19944;-44
2022/10/07 19:00:22;;;;;;;;;;;21.10;49.10;;;;;;8364617;28;19960;-44
2022/10/07 19:04:22;;;;;;;;;;;21.00;49.60;;;;;;8363663;28;20333;-45
2022/10/07 19:08:23;;;;;;;;;;;21.10;49.10;;;;;;8364739;28;20297;-44
2022/10/07 19:16:44;;;;;;;;;;;21.10;49.10;;;;;;8369278;28;19921;-45
2022/10/07 19:20:55;;;;;;;;;;;21.10;49.10;;;;;;8364022;28;19917;-47
2022/10/07 19:29:15;;;;;;;;;;;21.10;49.10;;;;;;8364916;28;19924;-44
2022/10/07 19:33:16;;;;;;;;;;;21.10;49.10;;;;;;8364168;28;20011;-45
2022/10/07 19:37:16;;;;;;;;;;;21.10;49.10;;;;;;8364355;28;19921;-46
2022/10/07 19:41:18;;;;;;;;;;;21.10;49.10;;;;;;8364056;28;20380;-45
2022/10/07 19:45:20;;;;;;;;;;;21.10;49.10;;;;;;8364061;28;19924;-45
2022/10/07 19:49:23;;;;;;;;;;;21.10;49.10;;;;;;8363044;28;20139;-44
2022/10/07 19:53:23;;;;;;;;;;;21.10;49.10;;;;;;8363444;28;19917;-45
2022/10/07 19:57:24;;;;;;;;;;;21.10;49.10;;;;;;8363039;28;20011;-45
2022/10/07 20:01:28;;;;;;;;;;;21.00;49.10;;;;;;8363282;28;19920;-46
2022/10/07 20:05:29;;;;;;;;;;;21.00;49.10;;;;;;8363277;28;20408;-47
2022/10/07 20:09:29;;;;;;;;;;;21.00;49.10;;;;;;8362954;28;19921;-47
2022/10/07 20:13:31;;;;;;;;;;;21.00;49.10;;;;;;8363119;28;19917;-44
2022/10/07 20:17:31;;;;;;;;;;;21.00;49.00;;;;;;8363339;28;19913;-44
2022/10/07 20:21:34;;;;;;;;;;;21.10;49.10;;;;;;8362475;28;19943;-45
2022/10/07 20:25:37;;;;;;;;;;;21.00;49.10;;;;;;8363058;28;19927;-45
2022/10/07 20:29:55;;;;;;;;;;;21.00;49.10;;;;;;8368309;28;20016;-44
2022/10/07 20:33:57;;;;;;;;;;;21.00;49.10;;;;;;8376994;28;19917;-44
2022/10/07 20:37:57;;;;;;;;;;;21.00;49.10;;;;;;8369393;28;19923;-46
2022/10/07 20:46:16;;;;;;;;;;;21.00;49.10;;;;;;8370547;28;19931;-45
2022/10/07 20:50:17;;;;;;;;;;;21.00;49.10;;;;;;8369258;28;19921;-44
2022/10/07 20:54:19;;;;;;;;;;;21.00;49.10;;;;;;8368499;28;20012;-45
2022/10/07 20:58:19;;;;;;;;;;;21.00;49.20;;;;;;8368760;28;20002;-45
2022/10/07 21:02:20;;;;;;;;;;;21.00;49.10;;;;;;8368540;28;19913;-45
2022/10/07 21:06:21;;;;;;;;;;;21.00;49.20;;;;;;8368241;28;19921;-45
2022/10/07 21:10:21;;;;;;;;;;;21.00;49.10;;;;;;8368581;28;19913;-47
2022/10/07 21:14:22;;;;;;;;;;;21.00;49.20;;;;;;8368231;28;19917;-44
2022/10/07 21:18:25;;;;;;;;;;;21.00;49.20;;;;;;8367784;28;19966;-44
2022/10/07 21:22:27;;;;;;;;;;;21.00;49.20;;;;;;8368191;28;19919;-43
2022/10/07 21:26:27;;;;;;;;;;;21.00;49.20;;;;;;8368091;28;19930;-45
2022/10/07 21:30:28;;;;;;;;;;;21.00;49.20;;;;;;8367635;28;19913;-45
2022/10/07 21:34:28;;;;;;;;;;;21.00;49.20;;;;;;8367677;28;19945;-46
2022/10/07 21:38:30;;;;;;;;;;;21.00;49.20;;;;;;8366503;28;19916;-45
2022/10/07 21:42:31;;;;;;;;;;;21.00;49.20;;;;;;8366833;28;19927;-46
2022/10/07 21:46:32;;;;;;;;;;;21.00;49.20;;;;;;8367592;28;19920;-44
2022/10/07 21:50:32;;;;;;;;;;;21.00;49.20;;;;;;8367455;28;19923;-45
2022/10/07 21:54:32;;;;;;;;;;;21.00;49.20;;;;;;8366567;28;20012;-46
2022/10/07 21:58:34;;;;;;;;;;;21.00;49.70;;;;;;8366910;28;20282;-44
2022/10/07 22:02:35;;;;;;;;;;;21.00;49.20;;;;;;8366092;28;19920;-45
2022/10/07 22:10:58;;;;;;;;;;;20.90;49.10;;;;;;8368904;28;19920;-44
2022/10/07 22:14:59;;;;;;;;;;;20.90;49.10;;;;;;8366155;28;19920;-45
2022/10/07 22:18:59;;;;;;;;;;;21.00;49.20;;;;;;8366655;28;19970;-47
2022/10/07 22:23:00;;;;;;;;;;;21.00;49.20;;;;;;8366327;28;20362;-46
2022/10/07 22:27:02;;;;;;;;;;;20.90;49.20;;;;;;8365814;28;19924;-44
2022/10/07 22:31:03;;;;;;;;;;;20.90;49.10;;;;;;8366518;28;19966;-44
2022/10/07 22:39:24;;;;;;;;;;;20.90;49.10;;;;;;8365442;28;19963;-46
2022/10/07 22:43:24;;;;;;;;;;;20.90;49.10;;;;;;8365808;28;19925;-44
2022/10/07 22:47:25;;;;;;;;;;;20.90;49.10;;;;;;8365692;28;20015;-45
2022/10/07 22:51:28;;;;;;;;;;;20.90;49.20;;;;;;8364834;28;19916;-44
2022/10/07 22:55:28;;;;;;;;;;;20.90;49.20;;;;;;8365478;28;19924;-46
2022/10/07 22:59:29;;;;;;;;;;;20.90;49.10;;;;;;8365290;28;19917;-45
2022/10/07 23:03:29;;;;;;;;;;;20.90;49.70;;;;;;8364542;28;19967;-46
2022/10/07 23:07:31;;;;;;;;;;;20.90;49.20;;;;;;8364960;28;19917;-45
2022/10/07 23:11:31;;;;;;;;;;;20.90;49.10;;;;;;8364966;28;19913;-45
2022/10/07 23:15:31;;;;;;;;;;;20.90;49.20;;;;;;8364124;28;20374;-45
2022/10/07 23:19:32;;;;;;;;;;;20.80;49.20;;;;;;8364412;28;20271;-44
2022/10/07 23:23:35;;;;;;;;;;;20.90;49.20;;;;;;8364291;28;19970;-45
2022/10/07 23:27:37;;;;;;;;;;;20.90;49.20;;;;;;8363928;28;19949;-44
2022/10/07 23:31:37;;;;;;;;;;;20.80;49.20;;;;;;8364389;28;19920;-43
2022/10/07 23:35:38;;;;;;;;;;;20.90;49.20;;;;;;8363831;28;19923;-45
2022/10/07 23:39:39;;;;;;;;;;;20.80;49.20;;;;;;8364113;28;19917;-44
2022/10/07 23:43:39;;;;;;;;;;;20.80;49.20;;;;;;8363702;28;19929;-45
2022/10/07 23:47:40;;;;;;;;;;;20.80;49.20;;;;;;8363299;28;19947;-44
2022/10/07 23:51:40;;;;;;;;;;;20.80;49.20;;;;;;8363914;28;20007;-45
2022/10/07 23:55:45;;;;;;;;;;;20.80;49.20;;;;;;8363623;28;19924;-44
2022/10/07 23:59:45;;;;;;;;;;;20.80;49.20;;;;;;8363228;28;20392;-45
